createdAt,value
2018-07-06T00:01:15.832Z,65.62
2018-07-06T00:03:56.619Z,66.45
2018-07-06T00:06:37.371Z,66.46
2018-07-06T00:09:18.243Z,67.01
2018-07-06T00:11:59.121Z,66.66
2018-07-06T00:14:39.880Z,67.27
2018-07-06T00:17:20.728Z,67.15
2018-07-06T00:20:01.493Z,66.91
2018-07-06T00:22:42.138Z,66.31
2018-07-06T00:25:23.002Z,66.78
2018-07-06T00:28:03.840Z,66.87
2018-07-06T00:30:44.628Z,66.73
2018-07-06T00:33:25.454Z,66.93
2018-07-06T00:36:06.273Z,67.10
2018-07-06T00:38:47.175Z,67.29
2018-07-06T00:41:28.019Z,66.82
2018-07-06T00:44:08.852Z,66.37
2018-07-06T00:46:49.568Z,67.47
2018-07-06T00:49:30.486Z,66.32
2018-07-06T00:52:11.216Z,66.84
2018-07-06T00:54:52.127Z,66.96
2018-07-06T00:57:32.955Z,66.39
2018-07-06T01:00:13.773Z,66.41
2018-07-06T01:02:54.544Z,66.53
2018-07-06T01:05:35.403Z,67.30
2018-07-06T01:08:16.146Z,66.37
2018-07-06T01:10:56.899Z,67.61
2018-07-06T01:13:37.583Z,66.79
2018-07-06T01:16:18.527Z,67.40
2018-07-06T01:18:59.357Z,67.13
2018-07-06T01:21:40.150Z,66.94
2018-07-06T01:24:20.864Z,66.97
2018-07-06T01:27:01.758Z,66.56
2018-07-06T01:29:42.391Z,66.68
2018-07-06T01:32:23.125Z,66.69
2018-07-06T01:35:03.968Z,66.42
2018-07-06T01:37:44.741Z,66.79
2018-07-06T01:40:25.528Z,66.68
2018-07-06T01:43:06.291Z,67.28
2018-07-06T01:45:47.194Z,67.13
2018-07-06T01:48:28.008Z,67.05
2018-07-06T01:51:08.844Z,66.89
2018-07-06T01:53:49.657Z,66.26
2018-07-06T01:56:30.371Z,66.82
2018-07-06T01:59:11.168Z,67.12
2018-07-06T02:01:51.954Z,66.52
2018-07-06T02:04:32.768Z,67.28
2018-07-06T02:07:13.407Z,66.58
2018-07-06T02:09:54.335Z,67.17
2018-07-06T02:12:34.952Z,66.95
2018-07-06T02:15:15.653Z,66.73
2018-07-06T02:17:56.404Z,66.06
2018-07-06T02:20:37.251Z,66.63
2018-07-06T02:23:17.878Z,66.17
2018-07-06T02:25:58.648Z,66.50
2018-07-06T02:28:39.334Z,66.29
2018-07-06T02:31:20.268Z,66.45
2018-07-06T02:34:00.967Z,66.69
2018-07-06T02:36:41.877Z,66.46
2018-07-06T02:39:22.605Z,66.22
2018-07-06T02:42:03.462Z,66.47
2018-07-06T02:44:44.240Z,66.08
2018-07-06T02:47:25.100Z,65.71
2018-07-06T02:50:05.872Z,65.89
2018-07-06T02:52:46.692Z,66.62
2018-07-06T02:55:27.403Z,66.34
2018-07-06T02:58:08.314Z,66.93
2018-07-06T03:00:49.047Z,67.38
2018-07-06T03:03:29.860Z,66.73
2018-07-06T03:06:10.664Z,66.34
2018-07-06T03:08:51.319Z,66.80
2018-07-06T03:11:32.092Z,66.34
2018-07-06T03:14:13.003Z,66.25
2018-07-06T03:16:53.724Z,66.24
2018-07-06T03:19:34.556Z,66.92
2018-07-06T03:22:15.282Z,66.59
2018-07-06T03:24:55.862Z,66.31
2018-07-06T03:27:36.580Z,66.88
2018-07-06T03:30:17.392Z,66.83
2018-07-06T03:32:58.110Z,66.53
2018-07-06T03:35:38.913Z,67.09
2018-07-06T03:38:19.642Z,67.50
2018-07-06T03:41:00.357Z,68.01
2018-07-06T03:43:41.075Z,67.40
2018-07-06T03:46:21.834Z,67.41
2018-07-06T03:49:02.600Z,66.76
2018-07-06T03:51:43.424Z,67.24
2018-07-06T03:54:24.129Z,67.39
2018-07-06T03:57:04.952Z,67.45
2018-07-06T03:59:45.747Z,66.69
2018-07-06T04:02:26.676Z,67.41
2018-07-06T04:05:07.499Z,66.53
2018-07-06T04:07:48.506Z,67.19
2018-07-06T04:10:29.251Z,67.06
2018-07-06T04:13:10.153Z,66.60
2018-07-06T04:15:50.896Z,66.46
2018-07-06T04:18:31.776Z,66.06
2018-07-06T04:21:12.520Z,66.26
2018-07-06T04:23:53.327Z,66.50
2018-07-06T04:26:33.940Z,66.48
2018-07-06T04:29:14.620Z,66.85
2018-07-06T04:31:55.207Z,66.63
2018-07-06T04:34:35.980Z,66.40
2018-07-06T04:37:16.752Z,66.39
2018-07-06T04:39:57.548Z,67.08
2018-07-06T04:42:38.335Z,66.70
2018-07-06T04:45:19.197Z,67.02
2018-07-06T04:48:00.066Z,66.72
2018-07-06T04:50:40.951Z,66.01
2018-07-06T04:53:21.765Z,66.60
2018-07-06T04:56:02.620Z,66.80
2018-07-06T04:58:43.402Z,66.31
2018-07-06T05:01:24.205Z,65.86
2018-07-06T05:04:04.877Z,66.01
2018-07-06T05:06:45.720Z,66.75
2018-07-06T05:09:26.343Z,67.89
2018-07-06T05:12:07.060Z,67.55
2018-07-06T05:14:47.960Z,68.09
2018-07-06T05:17:28.629Z,67.39
2018-07-06T05:20:09.322Z,68.28
2018-07-06T05:22:50.037Z,67.78
2018-07-06T05:25:30.876Z,68.43
2018-07-06T05:28:11.689Z,68.33
2018-07-06T05:30:52.484Z,68.25
2018-07-06T05:33:33.309Z,68.83
2018-07-06T05:36:14.030Z,68.14
2018-07-06T05:38:54.840Z,69.77
2018-07-06T05:41:35.531Z,70.07
2018-07-06T05:44:16.465Z,69.16
2018-07-06T05:46:57.120Z,68.79
2018-07-06T05:49:37.906Z,70.10
2018-07-06T05:52:18.620Z,69.80
2018-07-06T05:54:59.356Z,70.54
2018-07-06T05:57:40.088Z,69.50
2018-07-06T06:00:20.917Z,70.84
2018-07-06T06:03:01.775Z,72.47
2018-07-06T06:05:42.508Z,71.36
2018-07-06T06:08:10.780Z,71.81
2018-07-06T06:10:40.446Z,72.11
2018-07-06T06:13:10.172Z,71.36
2018-07-06T06:15:39.848Z,71.86
2018-07-06T06:18:09.541Z,71.25
2018-07-06T06:20:39.259Z,71.96
2018-07-06T06:23:08.911Z,71.50
2018-07-06T06:25:38.556Z,71.62
2018-07-06T06:28:08.298Z,71.72
2018-07-06T06:30:38.103Z,71.89
2018-07-06T06:33:07.855Z,71.28
2018-07-06T06:35:37.624Z,71.15
2018-07-06T06:38:07.309Z,72.13
2018-07-06T06:40:37.405Z,71.74
2018-07-06T06:43:07.072Z,72.39
2018-07-06T06:45:36.800Z,72.65
2018-07-06T06:48:06.586Z,71.28
2018-07-06T06:50:36.388Z,70.88
2018-07-06T06:53:06.201Z,71.61
2018-07-06T06:55:35.967Z,71.22
2018-07-06T06:58:05.643Z,72.48
2018-07-06T07:00:35.472Z,71.71
2018-07-06T07:03:05.208Z,71.83
2018-07-06T07:05:34.999Z,70.83
2018-07-06T07:08:04.825Z,71.59
2018-07-06T07:10:34.647Z,70.50
2018-07-06T07:13:04.368Z,71.18
2018-07-06T07:15:34.087Z,71.85
2018-07-06T07:18:03.792Z,72.24
2018-07-06T07:20:33.586Z,71.94
2018-07-06T07:23:03.256Z,72.14
2018-07-06T07:25:32.967Z,74.98
2018-07-06T07:28:02.916Z,73.67
2018-07-06T07:30:32.682Z,73.57
2018-07-06T07:33:02.469Z,74.42
2018-07-06T07:35:32.243Z,74.25
2018-07-06T07:38:01.997Z,74.67
2018-07-06T07:40:31.708Z,74.31
2018-07-06T07:43:01.429Z,74.87
2018-07-06T07:45:31.360Z,75.38
2018-07-06T07:48:01.537Z,73.33
2018-07-06T07:50:31.269Z,74.44
2018-07-06T07:53:12.101Z,75.04
2018-07-06T07:55:42.160Z,74.96
2018-07-06T07:58:11.921Z,75.09
2018-07-06T08:00:41.677Z,75.11
2018-07-06T08:03:11.388Z,75.40
2018-07-06T08:05:41.112Z,75.37
2018-07-06T08:08:10.828Z,76.30
2018-07-06T08:10:40.612Z,76.82
2018-07-06T08:13:10.417Z,75.49
2018-07-06T08:15:40.548Z,76.50
2018-07-06T08:18:10.227Z,75.68
2018-07-06T08:20:39.931Z,75.24
2018-07-06T08:23:09.574Z,76.54
2018-07-06T08:25:39.325Z,75.64
2018-07-06T08:28:08.967Z,75.25
2018-07-06T08:30:38.636Z,75.59
2018-07-06T08:33:08.433Z,75.69
2018-07-06T08:35:49.259Z,75.12
2018-07-06T08:38:18.971Z,73.41
2018-07-06T08:40:48.624Z,75.44
2018-07-06T08:43:18.345Z,74.03
2018-07-06T08:45:47.999Z,73.72
2018-07-06T08:48:17.976Z,73.35
2018-07-06T08:50:48.617Z,73.93
2018-07-06T08:53:18.276Z,74.11
2018-07-06T08:55:47.924Z,73.18
2018-07-06T08:58:17.673Z,72.96
2018-07-06T09:00:47.333Z,73.09
2018-07-06T09:03:17.015Z,73.24
2018-07-06T09:05:46.722Z,74.40
2018-07-06T09:08:16.389Z,74.24
2018-07-06T09:10:46.088Z,72.80
2018-07-06T09:13:15.968Z,73.49
2018-07-06T09:15:45.637Z,73.66
2018-07-06T09:18:15.343Z,73.34
2018-07-06T09:20:45.015Z,72.68
2018-07-06T09:23:14.669Z,73.72
2018-07-06T09:25:44.487Z,73.48
2018-07-06T09:28:14.101Z,73.67
2018-07-06T09:30:43.756Z,72.44
2018-07-06T09:33:13.502Z,72.14
2018-07-06T09:35:43.175Z,72.09
2018-07-06T09:38:12.864Z,71.84
2018-07-06T09:40:42.590Z,72.24
2018-07-06T09:43:12.272Z,72.57
2018-07-06T09:45:41.933Z,71.63
2018-07-06T09:48:11.655Z,71.29
2018-07-06T09:50:41.313Z,70.82
2018-07-06T09:53:10.976Z,71.26
2018-07-06T09:55:40.682Z,71.73
2018-07-06T09:58:10.352Z,70.60
2018-07-06T10:00:45.264Z,70.79
2018-07-06T10:03:14.945Z,71.61
2018-07-06T10:05:44.659Z,71.73
2018-07-06T10:08:14.449Z,70.92
2018-07-06T10:10:44.132Z,70.94
2018-07-06T10:13:13.801Z,70.23
2018-07-06T10:15:43.780Z,68.82
2018-07-06T10:18:13.744Z,69.28
2018-07-06T10:20:43.512Z,69.37
2018-07-06T10:23:13.188Z,69.05
2018-07-06T10:25:42.935Z,66.62
2018-07-06T10:28:22.548Z,65.50
2018-07-06T10:31:00.814Z,64.79
2018-07-06T10:33:30.584Z,64.92
2018-07-06T10:36:00.252Z,64.63
2018-07-06T10:38:29.914Z,64.80
2018-07-06T10:40:59.577Z,65.41
2018-07-06T10:43:29.300Z,64.22
2018-07-06T10:45:59.019Z,65.12
2018-07-06T10:48:28.705Z,65.31
2018-07-06T10:50:58.428Z,64.74
2018-07-06T10:53:28.092Z,64.41
2018-07-06T10:55:57.791Z,63.92
2018-07-06T10:58:27.533Z,62.32
2018-07-06T11:00:57.233Z,62.56
2018-07-06T11:03:26.879Z,61.89
2018-07-06T11:05:56.616Z,61.11
2018-07-06T11:08:26.309Z,61.78
2018-07-06T11:10:55.992Z,60.38
2018-07-06T11:13:25.719Z,60.32
2018-07-06T11:15:55.403Z,60.00
2018-07-06T11:18:25.421Z,59.74
2018-07-06T11:20:55.111Z,59.98
2018-07-06T11:23:24.798Z,60.04
2018-07-06T11:25:54.519Z,58.65
2018-07-06T11:28:24.181Z,59.71
2018-07-06T11:30:53.860Z,57.91
2018-07-06T11:33:23.579Z,57.21
2018-07-06T11:35:53.255Z,58.18
2018-07-06T11:38:22.928Z,58.26
2018-07-06T11:40:52.933Z,58.51
2018-07-06T11:43:22.640Z,57.49
2018-07-06T11:45:52.328Z,58.41
2018-07-06T11:48:22.002Z,58.35
2018-07-06T11:50:51.697Z,58.41
2018-07-06T11:53:21.408Z,57.29
2018-07-06T11:55:51.085Z,57.16
2018-07-06T11:58:20.885Z,56.73
2018-07-06T12:00:50.503Z,57.23
2018-07-06T12:03:20.232Z,57.02
2018-07-06T12:05:49.939Z,56.61
2018-07-06T12:08:19.692Z,54.52
2018-07-06T12:10:49.384Z,55.22
2018-07-06T12:13:20.772Z,55.76
2018-07-06T12:15:51.560Z,54.63
2018-07-06T12:18:21.292Z,54.78
2018-07-06T12:20:51.031Z,53.73
2018-07-06T12:23:20.680Z,53.76
2018-07-06T12:25:50.402Z,52.51
2018-07-06T12:28:20.073Z,51.42
2018-07-06T12:30:49.796Z,51.72
2018-07-06T12:33:19.465Z,51.67
2018-07-06T12:35:49.216Z,50.40
2018-07-06T12:38:18.874Z,48.89
2018-07-06T12:40:48.544Z,48.39
2018-07-06T12:43:18.285Z,47.75
2018-07-06T12:45:47.959Z,46.84
2018-07-06T12:48:17.620Z,47.29
2018-07-06T12:50:47.370Z,48.91
2018-07-06T12:53:17.041Z,47.37
2018-07-06T12:55:46.734Z,45.93
2018-07-06T12:58:16.456Z,46.97
2018-07-06T13:00:46.131Z,44.97
2018-07-06T13:03:15.800Z,43.17
2018-07-06T13:05:45.535Z,43.69
2018-07-06T13:08:15.437Z,43.39
2018-07-06T13:10:45.268Z,43.53
2018-07-06T13:13:14.953Z,42.20
2018-07-06T13:15:44.660Z,41.52
2018-07-06T13:18:14.373Z,42.28
2018-07-06T13:20:44.022Z,41.42
2018-07-06T13:23:13.724Z,40.65
2018-07-06T13:25:43.459Z,41.24
2018-07-06T13:28:13.138Z,40.25
2018-07-06T13:30:42.803Z,40.39
2018-07-06T13:33:12.544Z,38.66
2018-07-06T13:35:42.497Z,40.42
2018-07-06T13:38:12.231Z,39.53
2018-07-06T13:40:41.909Z,40.32
2018-07-06T13:43:11.594Z,39.89
2018-07-06T13:45:41.330Z,39.82
2018-07-06T13:48:10.999Z,39.87
2018-07-06T13:50:40.723Z,40.74
2018-07-06T13:53:10.469Z,37.87
2018-07-06T13:55:40.109Z,39.79
2018-07-06T13:58:09.772Z,38.38
2018-07-06T14:00:39.538Z,38.70
2018-07-06T14:03:09.213Z,37.02
2018-07-06T14:05:38.923Z,38.11
2018-07-06T14:08:08.780Z,37.98
2018-07-06T14:10:38.587Z,38.12
2018-07-06T14:13:08.333Z,37.30
2018-07-06T14:15:38.073Z,36.73
2018-07-06T14:18:07.824Z,37.77
2018-07-06T14:20:37.583Z,37.62
2018-07-06T14:23:07.280Z,38.21
2018-07-06T14:25:37.016Z,36.88
2018-07-06T14:28:06.762Z,37.74
2018-07-06T14:30:36.499Z,37.57
2018-07-06T14:33:06.236Z,37.59
2018-07-06T14:35:36.030Z,38.82
2018-07-06T14:38:05.834Z,38.78
2018-07-06T14:40:35.460Z,38.25
2018-07-06T14:43:05.272Z,38.05
2018-07-06T14:45:34.934Z,37.68
2018-07-06T14:48:04.626Z,38.53
2018-07-06T14:50:34.344Z,38.28
2018-07-06T14:53:04.127Z,38.54
2018-07-06T14:55:33.785Z,39.09
2018-07-06T14:58:03.482Z,39.07
2018-07-06T15:00:33.144Z,39.14
2018-07-06T15:03:02.768Z,39.83
2018-07-06T15:05:32.485Z,38.44
2018-07-06T15:08:02.163Z,38.79
2018-07-06T15:10:31.831Z,38.60
2018-07-06T15:13:01.626Z,39.63
2018-07-06T15:15:31.272Z,40.01
2018-07-06T15:18:00.948Z,38.69
2018-07-06T15:20:30.693Z,39.18
2018-07-06T15:23:00.368Z,39.31
2018-07-06T15:25:30.112Z,37.64
2018-07-06T15:27:59.773Z,36.76
2018-07-06T15:30:29.459Z,38.31
2018-07-06T15:32:59.229Z,38.33
2018-07-06T15:35:28.958Z,37.34
2018-07-06T15:37:58.612Z,36.51
2018-07-06T15:40:28.344Z,37.92
2018-07-06T15:42:58.051Z,37.88
2018-07-06T15:45:27.776Z,36.59
2018-07-06T15:47:57.512Z,38.47
2018-07-06T15:50:27.268Z,37.05
2018-07-06T15:52:56.960Z,39.07
2018-07-06T15:55:26.701Z,37.66
2018-07-06T15:57:56.437Z,38.47
2018-07-06T16:00:26.116Z,38.27
2018-07-06T16:02:55.856Z,39.54
2018-07-06T16:05:25.524Z,36.70
2018-07-06T16:07:55.229Z,36.42
2018-07-06T16:10:24.923Z,36.78
2018-07-06T16:12:54.593Z,37.16
2018-07-06T16:15:24.328Z,37.63
2018-07-06T16:17:54.002Z,37.41
2018-07-06T16:20:23.697Z,37.69
2018-07-06T16:22:53.429Z,38.29
2018-07-06T16:25:23.107Z,36.16
2018-07-06T16:27:52.811Z,36.70
2018-07-06T16:30:22.510Z,37.31
2018-07-06T16:32:52.184Z,36.29
2018-07-06T16:35:21.865Z,37.09
2018-07-06T16:37:51.583Z,36.33
2018-07-06T16:40:21.255Z,35.20
2018-07-06T16:42:50.943Z,37.90
2018-07-06T16:45:20.663Z,37.12
2018-07-06T16:47:50.313Z,37.86
2018-07-06T16:50:20.066Z,36.49
2018-07-06T16:52:49.821Z,37.18
2018-07-06T16:55:19.484Z,37.77
2018-07-06T16:57:49.203Z,36.49
2018-07-06T17:00:18.910Z,35.95
2018-07-06T17:02:48.567Z,35.94
2018-07-06T17:05:18.275Z,36.35
2018-07-06T17:07:47.925Z,35.76
2018-07-06T17:10:17.637Z,35.82
2018-07-06T17:12:47.364Z,34.65
2018-07-06T17:15:17.019Z,35.82
2018-07-06T17:17:46.860Z,34.71
2018-07-06T17:20:16.564Z,33.75
2018-07-06T17:22:46.210Z,35.55
2018-07-06T17:25:15.891Z,34.51
2018-07-06T17:27:45.660Z,33.79
2018-07-06T17:30:15.353Z,33.87
2018-07-06T17:32:45.100Z,34.52
2018-07-06T17:35:14.744Z,34.50
2018-07-06T17:37:44.424Z,33.49
2018-07-06T17:40:14.173Z,32.66
2018-07-06T17:42:43.856Z,32.75
2018-07-06T17:45:13.507Z,32.10
2018-07-06T17:47:43.291Z,32.43
2018-07-06T17:50:12.969Z,32.43
2018-07-06T17:52:42.637Z,32.09
2018-07-06T17:55:12.347Z,31.23
2018-07-06T17:57:42.010Z,32.81
2018-07-06T18:00:11.716Z,31.77
2018-07-06T18:02:41.437Z,32.18
2018-07-06T18:05:11.091Z,32.87
2018-07-06T18:07:40.790Z,31.78
2018-07-06T18:10:10.538Z,30.59
2018-07-06T18:12:40.307Z,30.76
2018-07-06T18:15:10.088Z,30.97
2018-07-06T18:17:39.836Z,31.79
2018-07-06T18:20:09.504Z,32.13
2018-07-06T18:22:39.334Z,31.99
2018-07-06T18:25:09.012Z,31.77
2018-07-06T18:27:38.666Z,32.58
2018-07-06T18:30:08.440Z,31.95
2018-07-06T18:32:38.113Z,31.91
2018-07-06T18:35:07.762Z,32.17
2018-07-06T18:37:37.536Z,33.37
2018-07-06T18:40:07.270Z,33.01
2018-07-06T18:42:36.957Z,33.79
2018-07-06T18:45:06.776Z,34.28
2018-07-06T18:47:36.589Z,34.06
2018-07-06T18:50:06.323Z,34.84
2018-07-06T18:52:36.008Z,34.27
2018-07-06T18:55:05.727Z,35.03
2018-07-06T18:57:35.561Z,35.75
2018-07-06T19:00:05.319Z,35.30
2018-07-06T19:02:34.998Z,34.52
2018-07-06T19:05:04.873Z,35.31
2018-07-06T19:07:34.603Z,35.35
2018-07-06T19:10:04.443Z,35.29
2018-07-06T19:12:34.153Z,35.51
2018-07-06T19:15:03.980Z,35.43
2018-07-06T19:17:33.676Z,36.31
2018-07-06T19:20:03.456Z,36.07
2018-07-06T19:22:33.150Z,36.12
2018-07-06T19:25:02.949Z,36.65
2018-07-06T19:27:32.669Z,36.61
2018-07-06T19:30:02.358Z,37.20
2018-07-06T19:32:32.103Z,37.41
2018-07-06T19:35:01.776Z,37.32
2018-07-06T19:37:31.471Z,37.41
2018-07-06T19:40:01.210Z,38.03
2018-07-06T19:42:30.933Z,38.01
2018-07-06T19:45:00.794Z,38.12
2018-07-06T19:47:30.513Z,38.30
2018-07-06T19:50:00.744Z,38.11
2018-07-06T19:52:30.502Z,38.51
2018-07-06T19:55:00.239Z,38.99
2018-07-06T19:57:29.965Z,39.08
2018-07-06T19:59:59.732Z,39.19
2018-07-06T20:02:29.422Z,39.25
2018-07-06T20:04:59.172Z,39.62
2018-07-06T20:07:28.892Z,39.31
2018-07-06T20:09:58.617Z,39.94
2018-07-06T20:12:28.363Z,39.06
2018-07-06T20:14:58.118Z,39.59
2018-07-06T20:17:27.817Z,39.68
2018-07-06T20:19:57.520Z,40.08
2018-07-06T20:22:27.164Z,40.34
2018-07-06T20:24:56.824Z,40.13
2018-07-06T20:27:26.556Z,40.79
2018-07-06T20:29:56.239Z,40.37
2018-07-06T20:32:25.916Z,40.07
2018-07-06T20:34:55.664Z,40.55
2018-07-06T20:37:25.364Z,40.32
2018-07-06T20:39:55.109Z,40.93
2018-07-06T20:42:24.881Z,40.65
2018-07-06T20:44:54.556Z,41.22
2018-07-06T20:47:24.432Z,40.96
2018-07-06T20:49:54.188Z,41.60
2018-07-06T20:52:23.888Z,41.41
2018-07-06T20:54:53.632Z,41.84
2018-07-06T20:57:23.367Z,41.54
2018-07-06T20:59:53.104Z,41.53
2018-07-06T21:02:22.784Z,42.18
2018-07-06T21:04:52.506Z,42.43
2018-07-06T21:07:22.285Z,42.01
2018-07-06T21:09:51.988Z,43.14
2018-07-06T21:12:21.715Z,42.77
2018-07-06T21:14:51.440Z,42.95
2018-07-06T21:17:21.140Z,42.87
2018-07-06T21:19:50.853Z,43.97
2018-07-06T21:22:20.631Z,43.63
2018-07-06T21:24:50.596Z,43.46
2018-07-06T21:27:20.541Z,44.00
2018-07-06T21:29:50.266Z,44.72
2018-07-06T21:32:19.937Z,45.26
2018-07-06T21:34:49.668Z,44.64
2018-07-06T21:37:19.358Z,44.76
2018-07-06T21:39:49.022Z,44.94
2018-07-06T21:42:18.740Z,45.54
2018-07-06T21:44:48.448Z,45.94
2018-07-06T21:47:18.184Z,45.98
2018-07-06T21:49:47.886Z,47.08
2018-07-06T21:52:17.548Z,47.28
2018-07-06T21:54:47.292Z,47.71
2018-07-06T21:57:17.018Z,47.65
2018-07-06T21:59:49.519Z,48.56
2018-07-06T22:02:19.392Z,48.11
2018-07-06T22:04:49.101Z,48.63
2018-07-06T22:07:18.784Z,48.99
2018-07-06T22:09:48.574Z,50.22
2018-07-06T22:12:18.292Z,50.08
2018-07-06T22:14:47.977Z,50.95
2018-07-06T22:17:17.721Z,50.97
2018-07-06T22:19:47.391Z,52.80
2018-07-06T22:22:17.069Z,53.33
2018-07-06T22:24:46.819Z,53.58
2018-07-06T22:27:16.483Z,53.19
2018-07-06T22:29:46.192Z,53.82
2018-07-06T22:32:15.917Z,54.29
2018-07-06T22:34:45.605Z,54.48
2018-07-06T22:37:15.377Z,55.73
2018-07-06T22:39:45.070Z,55.45
2018-07-06T22:42:14.747Z,55.51
2018-07-06T22:44:44.457Z,55.82
2018-07-06T22:47:14.124Z,56.17
2018-07-06T22:49:43.851Z,56.01
2018-07-06T22:52:13.602Z,56.36
2018-07-06T22:54:43.438Z,57.12
2018-07-06T22:57:13.115Z,57.49
2018-07-06T22:59:42.795Z,57.88
2018-07-06T23:02:12.508Z,58.01
2018-07-06T23:04:42.276Z,58.63
2018-07-06T23:07:11.952Z,58.48
2018-07-06T23:09:41.715Z,58.69
2018-07-06T23:12:11.420Z,58.35
2018-07-06T23:14:41.310Z,58.92
2018-07-06T23:17:11.012Z,59.66
2018-07-06T23:19:40.707Z,59.68
2018-07-06T23:22:10.397Z,60.72
2018-07-06T23:24:40.064Z,61.43
2018-07-06T23:27:09.775Z,62.24
2018-07-06T23:29:39.540Z,62.42
2018-07-06T23:32:09.270Z,63.46
2018-07-06T23:34:38.935Z,63.81
2018-07-06T23:37:08.909Z,64.25
2018-07-06T23:39:38.585Z,62.85
2018-07-06T23:42:08.311Z,63.85
2018-07-06T23:44:38.016Z,63.52
2018-07-06T23:47:07.705Z,65.70
2018-07-06T23:49:37.428Z,64.90
2018-07-06T23:52:07.107Z,65.85
2018-07-06T23:54:36.798Z,66.78
2018-07-06T23:57:06.879Z,67.31
2018-07-06T23:59:36.547Z,66.81
